Time;durP1;ratioP1;P1;durP2;ratioP2;P2;SDS_P1;SDS_P2;PMS_P1;PMS_P2;Temp;Humidity;BMP_temperature;BMP_pressure;BME280_temperature;BME280_humidity;BME280_pressure;Samples;Min_cycle;Max_cycle;Signal;HPM_P1;HPM_P2
2021/05/18 00:00:25;;;;;;;3.20;0.77;;;21.40;61.20;;;;;;5002277;28;20073;-79
2021/05/18 00:02:53;;;;;;;4.85;1.33;;;21.90;61.90;;;;;;4996483;28;20107;-79
2021/05/18 00:05:22;;;;;;;2.22;0.90;;;21.60;60.80;;;;;;4994410;28;20049;-79
2021/05/18 00:08:11;;;;;;;2.60;0.85;;;21.80;60.20;;;;;;5000423;28;20050;-75
2021/05/18 00:13:29;;;;;;;1.38;0.88;;;22.60;58.40;;;;;;5007884;28;20120;-75
2021/05/18 00:15:58;;;;;;;3.65;1.10;;;22.60;58.10;;;;;;5009201;28;20090;-76
2021/05/18 00:18:27;;;;;;;1.85;0.98;;;22.80;57.40;;;;;;5001894;28;20034;-76
2021/05/18 00:20:55;;;;;;;2.70;0.93;;;22.90;57.30;;;;;;5009214;28;20026;-76
2021/05/18 00:23:23;;;;;;;1.95;1.25;;;23.30;55.90;;;;;;5004203;28;20442;-75
2021/05/18 00:25:50;;;;;;;1.40;0.80;;;24.10;55.00;;;;;;4993155;28;20034;-76
2021/05/18 00:28:18;;;;;;;2.17;0.80;;;23.70;54.40;;;;;;5007903;28;20045;-76
2021/05/18 00:30:46;;;;;;;1.10;0.70;;;23.70;54.30;;;;;;4999538;28;20034;-74
2021/05/18 00:33:19;;;;;;;2.65;0.60;;;23.50;54.90;;;;;;4999077;28;22811;-75
2021/05/18 00:35:48;;;;;;;0.82;0.52;;;23.90;54.90;;;;;;4997925;28;20036;-74
2021/05/18 00:38:17;;;;;;;1.10;0.57;;;24.40;55.60;;;;;;4998527;28;20026;-75
2021/05/18 00:40:46;;;;;;;0.80;0.47;;;24.40;54.00;;;;;;4990607;28;20077;-74
2021/05/18 00:43:14;;;;;;;1.48;0.95;;;24.10;54.30;;;;;;4993459;28;20054;-76
2021/05/18 00:45:48;;;;;;;1.50;0.60;;;24.80;51.40;;;;;;4994108;28;20478;-76
2021/05/18 00:48:17;;;;;;;2.08;0.73;;;25.00;51.00;;;;;;4996986;28;20068;-76
2021/05/18 00:50:56;;;;;;;1.70;0.70;;;25.40;49.10;;;;;;4997426;28;20496;-74
2021/05/18 00:53:25;;;;;;;1.27;0.80;;;25.60;49.50;;;;;;4995843;28;20040;-74
2021/05/18 00:56:03;;;;;;;1.10;0.52;;;25.60;49.80;;;;;;4997294;28;20092;-73
2021/05/18 00:58:41;;;;;;;1.80;0.80;;;25.70;50.40;;;;;;4995163;28;20469;-73
2021/05/18 01:01:21;;;;;;;2.00;0.60;;;26.10;49.10;;;;;;4997083;28;20026;-75
2021/05/18 01:03:50;;;;;;;1.40;0.90;;;26.00;47.50;;;;;;5002518;28;20030;-75
2021/05/18 01:06:29;;;;;;;1.38;0.65;;;26.00;47.30;;;;;;4992156;28;20033;-73
2021/05/18 01:09:07;;;;;;;1.20;0.80;;;26.20;47.20;;;;;;4997909;28;20034;-74
2021/05/18 01:11:36;;;;;;;2.13;0.77;;;26.60;48.30;;;;;;4999927;28;20092;-74
2021/05/18 01:14:09;;;;;;;1.75;0.60;;;26.50;46.60;;;;;;5005187;28;20032;-74
2021/05/18 01:16:41;;;;;;;1.05;0.80;;;26.50;46.80;;;;;;4993775;28;20052;-74
2021/05/18 01:19:09;;;;;;;0.82;0.60;;;26.70;46.00;;;;;;4986787;28;20042;-73
2021/05/18 01:21:37;;;;;;;2.08;0.60;;;27.10;47.30;;;;;;4986040;28;20022;-73
2021/05/18 01:24:06;;;;;;;1.25;0.70;;;27.10;46.30;;;;;;4991245;28;20053;-73
2021/05/18 01:26:38;;;;;;;0.80;0.52;;;27.20;46.40;;;;;;4993272;28;20116;-73
2021/05/18 01:29:08;;;;;;;2.72;0.77;;;27.00;44.40;;;;;;4994774;28;20018;-73
2021/05/18 01:31:36;;;;;;;1.67;0.60;;;26.90;44.80;;;;;;4996853;28;20026;-73
2021/05/18 01:34:05;;;;;;;2.05;0.40;;;27.60;48.90;;;;;;4990315;28;20056;-73
2021/05/18 01:36:34;;;;;;;0.40;0.30;;;27.60;45.50;;;;;;4993297;28;20113;-74
2021/05/18 01:44:20;;;;;;;0.90;0.45;;;27.20;44.10;;;;;;4995443;28;20042;-74
2021/05/18 01:46:48;;;;;;;1.48;0.68;;;26.90;44.80;;;;;;4994435;28;20042;-74
2021/05/18 01:49:18;;;;;;;1.45;0.52;;;27.20;42.20;;;;;;4992153;28;20453;-74
2021/05/18 01:51:52;;;;;;;1.52;0.40;;;27.20;43.30;;;;;;4991545;28;20032;-73
2021/05/18 01:54:30;;;;;;;2.15;0.70;;;27.20;44.10;;;;;;4990218;28;20420;-74
2021/05/18 01:59:32;;;;;;;1.35;0.70;;;28.10;46.10;;;;;;4994775;28;20068;-72
2021/05/18 02:02:05;;;;;;;1.60;0.70;;;28.30;42.80;;;;;;4995417;28;20042;-73
2021/05/18 02:04:48;;;;;;;2.17;0.60;;;28.20;42.10;;;;;;4988572;28;20030;-74
2021/05/18 02:07:23;;;;;;;1.23;0.50;;;27.80;42.10;;;;;;4998401;28;20034;-75
2021/05/18 02:09:50;;;;;;;1.43;0.93;;;27.70;42.20;;;;;;4988925;28;20027;-73
2021/05/18 02:12:18;;;;;;;1.90;0.80;;;27.80;41.20;;;;;;4991756;28;20641;-73
2021/05/18 02:14:49;;;;;;;1.90;0.98;;;27.00;41.40;;;;;;4998174;28;20246;-73
2021/05/18 02:17:24;;;;;;;2.28;0.93;;;26.80;45.60;;;;;;4992507;28;20022;-73
2021/05/18 02:25:11;;;;;;;2.80;0.70;;;26.70;42.20;;;;;;4995531;28;20037;-73
2021/05/18 02:27:39;;;;;;;1.08;0.70;;;26.50;43.50;;;;;;4992037;28;20038;-73
2021/05/18 02:30:08;;;;;;;1.70;0.75;;;26.50;45.00;;;;;;4996358;28;20015;-73
2021/05/18 02:32:36;;;;;;;2.40;1.00;;;26.50;42.40;;;;;;4993402;28;20421;-74
2021/05/18 02:35:06;;;;;;;2.28;0.70;;;25.80;45.10;;;;;;4995160;28;20114;-73
2021/05/18 02:37:37;;;;;;;1.08;0.70;;;25.70;43.20;;;;;;4997202;28;20030;-73
2021/05/18 02:40:07;;;;;;;0.90;0.60;;;25.60;43.60;;;;;;4997147;28;20582;-74
2021/05/18 02:42:34;;;;;;;1.15;0.63;;;25.80;43.80;;;;;;4995185;28;20025;-73
2021/05/18 02:45:05;;;;;;;3.40;1.00;;;25.80;44.10;;;;;;4997346;28;20184;-73
2021/05/18 02:50:18;;;;;;;1.73;1.13;;;25.40;47.00;;;;;;4990213;28;20133;-73
2021/05/18 02:52:46;;;;;;;1.85;0.60;;;25.20;44.40;;;;;;4995577;28;20031;-73
2021/05/18 02:55:21;;;;;;;1.55;0.57;;;24.80;44.90;;;;;;4993977;28;20021;-73
2021/05/18 02:57:49;;;;;;;2.20;0.80;;;25.00;45.80;;;;;;4994082;28;20080;-72
2021/05/18 03:00:22;;;;;;;1.85;1.23;;;25.20;45.00;;;;;;4994129;28;20113;-73
2021/05/18 03:02:51;;;;;;;1.73;0.82;;;25.30;46.80;;;;;;4992060;28;20088;-73
2021/05/18 03:05:20;;;;;;;1.88;1.33;;;25.50;45.00;;;;;;4996442;28;20022;-74
2021/05/18 03:07:48;;;;;;;0.98;0.60;;;25.10;45.60;;;;;;4998269;28;20034;-73
2021/05/18 03:10:15;;;;;;;1.80;0.80;;;24.50;46.40;;;;;;4988321;28;20403;-73
2021/05/18 03:12:43;;;;;;;2.05;0.73;;;24.30;45.60;;;;;;4988278;28;20022;-73
2021/05/18 03:15:11;;;;;;;1.38;0.60;;;24.20;47.10;;;;;;4985414;28;20157;-74
2021/05/18 03:17:39;;;;;;;2.20;0.80;;;24.10;46.90;;;;;;4987060;28;20076;-73
2021/05/18 03:20:10;;;;;;;1.08;0.70;;;24.00;48.00;;;;;;4985436;28;20098;-74
2021/05/18 03:22:38;;;;;;;1.52;0.77;;;23.80;45.50;;;;;;4992531;28;20060;-74
2021/05/18 03:25:07;;;;;;;1.50;0.65;;;24.10;47.20;;;;;;4989582;28;20048;-73
2021/05/18 03:27:35;;;;;;;1.10;0.60;;;24.10;45.90;;;;;;4988294;28;20183;-73
2021/05/18 03:30:17;;;;;;;0.65;0.50;;;23.40;46.00;;;;;;4991694;28;20054;-75
2021/05/18 03:35:30;;;;;;;0.73;0.50;;;22.70;45.90;;;;;;4988186;28;20070;-75
2021/05/18 03:38:01;;;;;;;2.75;0.40;;;22.40;49.40;;;;;;4991567;28;20044;-73
2021/05/18 03:40:30;;;;;;;1.10;0.50;;;22.00;49.00;;;;;;4990530;28;20113;-72
2021/05/18 03:43:19;;;;;;;1.55;0.50;;;21.60;47.30;;;;;;4995067;28;20026;-73
2021/05/18 03:45:52;;;;;;;0.98;0.40;;;21.50;48.10;;;;;;4987579;28;20019;-73
2021/05/18 03:48:53;;;;;;;1.50;0.60;;;21.40;50.70;;;;;;4991439;28;20045;-73
2021/05/18 03:54:21;;;;;;;0.85;0.30;;;21.00;47.60;;;;;;4997959;28;20056;-73
2021/05/18 04:19:07;;;;;;;0.88;0.30;;;20.10;51.50;;;;;;4996462;28;20119;-71
2021/05/18 04:51:38;;;;;;;0.60;0.30;;;19.60;54.30;;;;;;4995969;28;20097;-73
2021/05/18 04:54:26;;;;;;;1.13;0.30;;;19.50;54.30;;;;;;4998899;28;20029;-75
2021/05/18 04:59:53;;;;;;;2.10;0.73;;;19.40;53.80;;;;;;4994217;28;20032;-74
2021/05/18 05:08:05;;;;;;;0.70;0.30;;;19.40;54.20;;;;;;4999602;28;20061;-74
2021/05/18 05:15:40;;;;;;;3.03;0.30;;;19.40;55.10;;;;;;4997026;28;20092;-74
2021/05/18 05:18:07;;;;;;;0.47;0.22;;;19.40;54.00;;;;;;4994275;28;20037;-76
2021/05/18 05:20:36;;;;;;;0.57;0.30;;;19.40;55.40;;;;;;4990962;28;20030;-75
2021/05/18 05:23:04;;;;;;;0.88;0.60;;;19.40;55.60;;;;;;5003295;28;20473;-74
2021/05/18 05:25:31;;;;;;;0.70;0.43;;;19.40;55.80;;;;;;4990742;28;20088;-73
2021/05/18 05:27:59;;;;;;;0.98;0.65;;;19.40;54.90;;;;;;5000081;28;20104;-74
2021/05/18 05:30:26;;;;;;;1.88;0.70;;;19.40;55.20;;;;;;4998165;28;20022;-75
2021/05/18 05:32:53;;;;;;;1.65;1.00;;;19.40;55.40;;;;;;4996836;28;20032;-74
2021/05/18 05:35:21;;;;;;;1.00;0.52;;;19.40;54.50;;;;;;4995401;28;20089;-75
2021/05/18 05:37:48;;;;;;;0.30;0.22;;;19.40;54.00;;;;;;4996760;28;20043;-73
2021/05/18 05:40:16;;;;;;;0.90;0.20;;;19.40;53.80;;;;;;4995581;28;20038;-73
2021/05/18 05:42:43;;;;;;;1.80;0.30;;;19.40;55.10;;;;;;4995882;28;20022;-73
2021/05/18 05:45:11;;;;;;;0.60;0.20;;;19.40;54.50;;;;;;4998368;28;20113;-73
2021/05/18 05:47:39;;;;;;;1.35;0.32;;;19.50;51.90;;;;;;4997659;28;20134;-73
2021/05/18 05:50:07;;;;;;;0.32;0.28;;;19.50;52.00;;;;;;4991726;28;20042;-73
2021/05/18 05:52:35;;;;;;;0.77;0.20;;;19.60;53.20;;;;;;4998874;28;20029;-74
2021/05/18 05:55:03;;;;;;;0.50;0.30;;;19.60;51.90;;;;;;4997559;28;20037;-73
2021/05/18 05:57:30;;;;;;;0.85;0.20;;;19.60;51.40;;;;;;4993363;28;20022;-72
2021/05/18 05:59:58;;;;;;;0.20;0.17;;;19.50;51.00;;;;;;4992834;28;20469;-75
2021/05/18 06:02:25;;;;;;;0.20;0.20;;;19.50;51.30;;;;;;5006329;28;20152;-73
2021/05/18 06:04:53;;;;;;;0.93;0.50;;;19.50;51.60;;;;;;4996521;28;20117;-73
2021/05/18 06:07:20;;;;;;;0.85;0.20;;;19.50;52.00;;;;;;4999969;28;20044;-72
2021/05/18 06:09:50;;;;;;;0.60;0.20;;;19.60;51.60;;;;;;4998378;28;20497;-74
2021/05/18 06:12:27;;;;;;;0.35;0.20;;;19.70;51.10;;;;;;5002184;28;20474;-74
2021/05/18 06:43:04;;;;;;;0.47;0.45;;;18.80;54.70;;;;;;4987316;28;20536;-76
2021/05/18 06:47:50;;;;;;;1.00;0.30;;;18.50;56.60;;;;;;4995626;28;20073;-84
2021/05/18 06:52:46;;;;;;;2.13;0.40;;;18.20;59.10;;;;;;4996071;28;20109;-87
2021/05/18 06:55:21;;;;;;;2.70;0.43;;;18.10;59.90;;;;;;4988501;28;20114;-85
2021/05/18 06:57:51;;;;;;;1.80;0.32;;;17.90;58.30;;;;;;4992454;28;20034;-86
2021/05/18 07:00:19;;;;;;;2.35;0.30;;;17.80;61.50;;;;;;4997332;28;20027;-82
2021/05/18 07:02:49;;;;;;;0.65;0.38;;;17.70;63.20;;;;;;4991724;28;20022;-85
2021/05/18 07:07:48;;;;;;;1.23;0.40;;;17.40;63.40;;;;;;5000232;28;20037;-85
2021/05/18 07:10:16;;;;;;;0.43;0.25;;;17.30;64.70;;;;;;5001018;28;20026;-85
2021/05/18 07:12:43;;;;;;;2.33;0.57;;;17.10;64.90;;;;;;4995518;28;20030;-83
2021/05/18 07:15:13;;;;;;;1.40;0.50;;;17.00;64.60;;;;;;4991356;28;20026;-84
2021/05/18 07:17:41;;;;;;;0.88;0.40;;;16.80;65.00;;;;;;4991204;28;20146;-85
2021/05/18 07:20:09;;;;;;;3.85;1.00;;;16.70;66.30;;;;;;5002578;28;20026;-83
2021/05/18 07:22:36;;;;;;;1.65;0.93;;;16.70;66.40;;;;;;5004084;28;20038;-86
2021/05/18 07:25:04;;;;;;;0.52;0.40;;;16.60;67.30;;;;;;5003579;28;20057;-87
2021/05/18 07:27:32;;;;;;;2.55;0.75;;;16.50;67.80;;;;;;4998412;28;20073;-87
2021/05/18 07:30:00;;;;;;;1.85;0.40;;;16.40;68.10;;;;;;4994981;28;20106;-86
2021/05/18 07:32:27;;;;;;;0.80;0.40;;;16.30;70.70;;;;;;4996628;28;20053;-88
2021/05/18 07:34:55;;;;;;;1.75;0.55;;;16.20;71.00;;;;;;5004941;28;20030;-87
2021/05/18 07:37:26;;;;;;;1.70;0.60;;;16.10;71.40;;;;;;5005198;28;20532;-83
2021/05/18 07:39:53;;;;;;;2.15;0.52;;;16.00;72.50;;;;;;4995845;28;20037;-84
2021/05/18 07:42:21;;;;;;;1.80;1.02;;;15.90;72.50;;;;;;4997449;28;20505;-84
2021/05/18 07:44:48;;;;;;;2.28;0.50;;;15.80;72.30;;;;;;5004269;28;20138;-84
2021/05/18 07:47:17;;;;;;;4.40;0.68;;;15.70;72.70;;;;;;5002695;28;20042;-82
2021/05/18 07:49:49;;;;;;;5.72;0.60;;;15.60;72.90;;;;;;5000109;28;20041;-83
2021/05/18 08:05:31;;;;;;;3.40;0.73;;;15.00;76.60;;;;;;5002845;28;20489;-83
2021/05/18 08:07:59;;;;;;;2.88;1.17;;;15.00;76.90;;;;;;5002834;28;20160;-85
2021/05/18 08:12:58;;;;;;;4.43;2.47;;;14.90;75.40;;;;;;5001408;28;20105;-81
2021/05/18 08:18:27;;;;;;;3.97;2.65;;;15.00;74.70;;;;;;5006131;28;21660;-82
2021/05/18 10:15:36;;;;;;;5.75;3.30;;;12.90;91.40;;;;;;4998837;28;20096;-84
2021/05/18 10:21:45;;;;;;;6.73;3.47;;;12.90;91.50;;;;;;4995164;28;20042;-83
2021/05/18 10:35:09;;;;;;;5.00;3.65;;;12.60;92.10;;;;;;5001351;28;20042;-83
2021/05/18 10:40:22;;;;;;;4.00;2.95;;;12.50;92.40;;;;;;4999617;28;20050;-82
2021/05/18 10:43:20;;;;;;;5.55;3.22;;;12.40;92.30;;;;;;4994096;28;20578;-83
2021/05/18 10:45:58;;;;;;;8.32;4.18;;;12.40;92.30;;;;;;4993392;28;20026;-84
2021/05/18 10:48:52;;;;;;;6.55;4.65;;;12.30;92.80;;;;;;4998120;28;20037;-83
2021/05/18 10:51:35;;;;;;;6.75;3.85;;;12.20;92.90;;;;;;4995266;28;20365;-83
2021/05/18 10:54:22;;;;;;;6.45;3.30;;;12.10;93.00;;;;;;4999043;28;20388;-83
2021/05/18 10:56:56;;;;;;;7.65;2.42;;;11.90;93.00;;;;;;4995181;28;20045;-84
2021/05/18 10:59:27;;;;;;;3.55;2.75;;;11.80;93.40;;;;;;4998393;28;20888;-83
2021/05/18 11:02:20;;;;;;;6.13;2.95;;;11.70;93.50;;;;;;5004116;28;20385;-83
2021/05/18 11:04:59;;;;;;;5.53;3.17;;;11.70;93.40;;;;;;4990662;28;20757;-83
2021/05/18 11:07:35;;;;;;;3.65;3.05;;;11.60;93.60;;;;;;5000087;28;20097;-84
2021/05/18 11:10:15;;;;;;;;;;;11.60;93.60;;;;;;4996908;28;20022;-85
2021/05/18 11:12:44;;;;;;;3.97;2.72;;;11.50;93.70;;;;;;4998995;28;20355;-85
2021/05/18 11:15:20;;;;;;;8.15;4.13;;;11.40;93.70;;;;;;4998262;28;20358;-85
2021/05/18 11:17:53;;;;;;;10.55;4.32;;;11.40;93.70;;;;;;5000404;28;20033;-85
2021/05/18 11:23:23;;;;;;;6.70;3.97;;;11.20;94.20;;;;;;5001463;28;20023;-84
2021/05/18 11:25:53;;;;;;;9.30;4.00;;;11.20;94.00;;;;;;4993703;28;20031;-84
2021/05/18 11:28:32;;;;;;;8.00;4.50;;;11.10;94.10;;;;;;4990579;28;20023;-82
2021/05/18 11:31:04;;;;;;;8.50;5.25;;;11.10;94.10;;;;;;4993715;28;20026;-84
2021/05/18 11:33:42;;;;;;;12.45;6.97;;;11.00;94.10;;;;;;5001227;28;20035;-83
2021/05/18 11:36:34;;;;;;;14.65;7.72;;;10.90;94.30;;;;;;4994183;28;20026;-85
2021/05/18 11:39:08;;;;;;;12.50;6.57;;;10.90;94.60;;;;;;4996465;28;20027;-84
2021/05/18 11:41:38;;;;;;;11.75;7.10;;;10.80;94.60;;;;;;4991249;28;20050;-83
2021/05/18 11:44:07;;;;;;;10.50;7.18;;;10.80;94.70;;;;;;5001840;28;20129;-85
2021/05/18 11:46:41;;;;;;;8.85;5.90;;;10.70;94.60;;;;;;4998388;28;20026;-82
2021/05/18 11:49:11;;;;;;;11.40;6.40;;;10.70;94.60;;;;;;5003390;28;20026;-84
2021/05/18 11:51:55;;;;;;;9.80;5.15;;;10.70;94.90;;;;;;4999938;28;20062;-84
2021/05/18 11:54:27;;;;;;;8.43;5.65;;;10.60;95.00;;;;;;4998153;28;20061;-83
2021/05/18 11:56:57;;;;;;;11.20;6.22;;;10.60;94.90;;;;;;5002358;28;20018;-83
2021/05/18 11:59:25;;;;;;;9.10;4.55;;;10.50;95.00;;;;;;5006989;28;20026;-84
2021/05/18 12:02:00;;;;;;;7.68;4.95;;;10.50;94.90;;;;;;5001367;28;20045;-81
2021/05/18 12:04:30;;;;;;;6.47;3.78;;;10.40;95.10;;;;;;5007842;28;20026;-85
2021/05/18 12:07:12;;;;;;;6.28;3.78;;;10.40;95.00;;;;;;5003337;28;20026;-84
2021/05/18 12:09:46;;;;;;;8.05;4.50;;;10.40;95.20;;;;;;5004446;28;20500;-84
2021/05/18 12:12:16;;;;;;;17.83;7.70;;;10.30;95.30;;;;;;5001741;28;20062;-85
2021/05/18 12:14:52;;;;;;;21.35;8.75;;;10.30;95.10;;;;;;4992885;28;20466;-85
2021/05/18 12:17:27;;;;;;;19.92;10.40;;;10.30;95.20;;;;;;5006522;28;20068;-84
2021/05/18 12:19:54;;;;;;;14.93;8.40;;;10.20;95.30;;;;;;4997176;28;20023;-85
2021/05/18 12:22:22;;;;;;;17.27;9.65;;;10.20;95.50;;;;;;4999536;28;20057;-85
2021/05/18 12:24:49;;;;;;;20.63;10.98;;;10.20;95.80;;;;;;5005758;28;20034;-86
2021/05/18 12:27:17;;;;;;;23.83;11.25;;;10.20;95.70;;;;;;5005105;28;20068;-86
2021/05/18 12:29:51;;;;;;;11.13;6.35;;;10.20;95.80;;;;;;5003366;28;20023;-84
2021/05/18 12:32:26;;;;;;;11.48;5.93;;;10.10;96.00;;;;;;4997283;28;20022;-84
2021/05/18 12:35:04;;;;;;;9.32;5.75;;;10.10;96.40;;;;;;4998654;28;20026;-85
2021/05/18 12:37:40;;;;;;;6.80;4.50;;;10.00;96.40;;;;;;5002060;28;20076;-86
2021/05/18 12:40:09;;;;;;;;;;;9.90;96.50;;;;;;5007597;28;20041;-85
2021/05/18 12:42:38;;;;;;;5.78;3.40;;;9.90;96.70;;;;;;5012580;28;20356;-84
2021/05/18 12:45:21;;;;;;;6.50;3.78;;;9.90;96.50;;;;;;5006159;28;20359;-85
2021/05/18 12:47:55;;;;;;;5.82;3.22;;;10.00;96.50;;;;;;5004722;28;20049;-85
2021/05/18 12:50:23;;;;;;;6.07;2.90;;;10.00;96.40;;;;;;5012770;28;20090;-85
2021/05/18 12:52:52;;;;;;;4.75;3.08;;;10.10;96.20;;;;;;5000884;28;20034;-85
2021/05/18 12:55:27;;;;;;;6.38;3.53;;;10.00;96.00;;;;;;4991629;28;20100;-85
2021/05/18 12:58:06;;;;;;;5.60;3.47;;;10.00;96.00;;;;;;5001194;28;20065;-84
2021/05/18 13:00:39;;;;;;;6.55;3.10;;;10.00;95.90;;;;;;4993696;28;20019;-85
2021/05/18 13:03:21;;;;;;;6.22;3.15;;;9.90;96.10;;;;;;5003762;28;20121;-84
2021/05/18 13:05:54;;;;;;;7.15;4.18;;;9.90;96.40;;;;;;4995944;28;20076;-84
2021/05/18 13:08:45;;;;;;;10.75;4.00;;;9.90;96.50;;;;;;5000831;28;20473;-85
2021/05/18 13:13:59;;;;;;;20.15;5.72;;;10.00;96.80;;;;;;4995597;28;20030;-85
2021/05/18 13:16:33;;;;;;;28.17;8.07;;;10.00;96.90;;;;;;4996630;28;20112;-83
2021/05/18 13:19:12;;;;;;;28.10;7.45;;;10.00;96.60;;;;;;4992324;28;20076;-85
2021/05/18 13:21:48;;;;;;;20.85;6.70;;;10.00;96.60;;;;;;4997203;28;20113;-83
2021/05/18 13:27:01;;;;;;;24.38;8.05;;;9.90;96.80;;;;;;4996563;28;20650;-83
2021/05/18 13:29:29;;;;;;;22.58;7.57;;;9.80;96.90;;;;;;4996161;28;20105;-82
2021/05/18 13:31:57;;;;;;;29.40;8.45;;;9.80;97.20;;;;;;4992670;28;20034;-81
2021/05/18 13:34:24;;;;;;;21.40;6.10;;;9.70;97.10;;;;;;5009774;28;20022;-81
2021/05/18 13:36:51;;;;;;;19.08;5.28;;;9.70;97.20;;;;;;4995493;28;20040;-84
2021/05/18 13:39:25;;;;;;;11.90;4.88;;;9.70;97.40;;;;;;4997561;28;20098;-82
2021/05/18 13:41:53;;;;;;;16.02;4.10;;;9.60;97.60;;;;;;4991647;28;20042;-80
2021/05/18 13:44:20;;;;;;;7.78;4.38;;;9.60;97.70;;;;;;4999370;28;20479;-82
2021/05/18 13:46:48;;;;;;;9.55;3.70;;;9.60;97.60;;;;;;4999639;28;20088;-80
2021/05/18 13:49:16;;;;;;;8.38;3.42;;;9.60;97.70;;;;;;5000326;28;20058;-79
2021/05/18 13:51:44;;;;;;;9.50;3.90;;;9.60;97.60;;;;;;4998379;28;20034;-79
2021/05/18 13:54:12;;;;;;;7.60;5.20;;;9.50;97.60;;;;;;5000895;28;20037;-79
2021/05/18 13:56:41;;;;;;;11.32;5.57;;;9.50;97.70;;;;;;4997695;28;20037;-80
2021/05/18 13:59:09;;;;;;;7.25;4.55;;;9.50;97.60;;;;;;4995455;28;20049;-80
2021/05/18 14:01:36;;;;;;;7.75;4.68;;;9.50;97.50;;;;;;4998669;28;20058;-79
2021/05/18 14:04:04;;;;;;;9.32;5.05;;;9.50;97.40;;;;;;4998944;28;20381;-79
2021/05/18 14:06:32;;;;;;;8.27;5.53;;;9.40;97.40;;;;;;5000237;28;20493;-78
2021/05/18 14:09:00;;;;;;;10.07;5.65;;;9.40;97.50;;;;;;5002413;28;20026;-77
2021/05/18 14:11:28;;;;;;;9.30;5.72;;;9.40;97.60;;;;;;5003626;28;20057;-80
2021/05/18 14:13:55;;;;;;;10.48;5.10;;;9.40;97.50;;;;;;4996643;28;20018;-81
2021/05/18 14:16:23;;;;;;;9.85;5.28;;;9.30;97.30;;;;;;4995148;28;20650;-80
2021/05/18 14:18:57;;;;;;;10.98;5.50;;;9.30;97.10;;;;;;5002705;28;20042;-78
2021/05/18 14:21:26;;;;;;;9.75;5.05;;;9.20;97.30;;;;;;4996920;28;20095;-79
2021/05/18 14:24:19;;;;;;;10.90;5.72;;;9.20;97.20;;;;;;4991565;28;20045;-79
2021/05/18 14:26:46;;;;;;;9.32;4.85;;;9.10;97.20;;;;;;5000102;28;20045;-80
2021/05/18 14:29:14;;;;;;;9.82;5.75;;;9.10;97.30;;;;;;4994050;28;20101;-78
2021/05/18 14:31:42;;;;;;;10.13;5.30;;;9.10;97.50;;;;;;4997480;28;20034;-79
2021/05/18 14:34:10;;;;;;;8.38;5.07;;;9.10;97.40;;;;;;5000057;28;20025;-80
2021/05/18 14:36:37;;;;;;;6.72;4.70;;;9.10;97.60;;;;;;4998375;28;20507;-79
2021/05/18 14:39:08;;;;;;;9.07;5.80;;;9.10;97.40;;;;;;4997456;28;20643;-80
2021/05/18 14:44:25;;;;;;;12.13;4.43;;;9.00;97.60;;;;;;4993799;28;20088;-81
2021/05/18 14:55:08;;;;;;;18.45;7.22;;;8.90;97.70;;;;;;4998212;28;20037;-81
2021/05/18 14:57:35;;;;;;;9.25;4.30;;;8.90;97.90;;;;;;4994125;28;20042;-81
2021/05/18 15:00:04;;;;;;;10.02;4.28;;;8.90;98.10;;;;;;4993073;28;20026;-82
2021/05/18 15:02:32;;;;;;;12.70;4.57;;;8.90;97.90;;;;;;4996197;28;20014;-80
2021/05/18 15:04:59;;;;;;;15.88;4.15;;;8.80;97.60;;;;;;4992960;28;20034;-81
2021/05/18 15:07:26;;;;;;;9.10;3.95;;;8.70;97.50;;;;;;4997912;28;20031;-80
2021/05/18 15:09:55;;;;;;;11.57;5.50;;;8.70;97.40;;;;;;4993183;28;20373;-82
2021/05/18 15:12:23;;;;;;;11.63;5.22;;;8.60;97.50;;;;;;5003587;28;20041;-81
2021/05/18 15:14:51;;;;;;;9.50;3.75;;;8.60;97.80;;;;;;5006902;28;20121;-82
2021/05/18 15:17:18;;;;;;;16.95;4.72;;;8.70;97.90;;;;;;5004121;28;20445;-79
2021/05/18 15:19:47;;;;;;;12.60;4.32;;;8.60;97.50;;;;;;4993509;28;20481;-83
2021/05/18 15:22:15;;;;;;;12.57;4.85;;;8.40;97.90;;;;;;4999418;28;20027;-85
2021/05/18 15:24:42;;;;;;;12.48;5.78;;;8.40;98.00;;;;;;4993718;28;20084;-83
2021/05/18 15:27:11;;;;;;;12.07;3.95;;;8.40;98.40;;;;;;5001585;28;20096;-83
2021/05/18 15:29:38;;;;;;;11.02;6.03;;;8.30;98.40;;;;;;4993198;28;20045;-81
2021/05/18 15:32:06;;;;;;;12.98;5.05;;;8.30;98.50;;;;;;4998075;28;20117;-82
2021/05/18 15:34:35;;;;;;;14.40;6.13;;;8.20;98.50;;;;;;4994183;28;20034;-81
2021/05/18 15:37:02;;;;;;;15.30;5.18;;;8.20;98.90;;;;;;5015515;28;20125;-83
2021/05/18 15:39:30;;;;;;;17.52;5.45;;;8.10;98.90;;;;;;4998729;28;20046;-81
2021/05/18 15:41:57;;;;;;;14.73;5.05;;;8.10;99.10;;;;;;4995353;28;20141;-80
2021/05/18 15:44:25;;;;;;;8.25;4.22;;;8.10;98.90;;;;;;4995853;28;20579;-82
2021/05/18 15:46:52;;;;;;;14.02;4.35;;;8.00;98.70;;;;;;5000696;28;20428;-79
2021/05/18 15:49:20;;;;;;;19.27;6.15;;;8.00;98.60;;;;;;4998154;28;20030;-82
2021/05/18 15:51:47;;;;;;;11.60;5.90;;;8.00;98.30;;;;;;4994447;28;20039;-82
2021/05/18 15:54:14;;;;;;;13.55;4.78;;;7.90;98.20;;;;;;4998869;28;20026;-82
2021/05/18 15:56:42;;;;;;;10.30;3.70;;;7.90;98.30;;;;;;4996567;28;20026;-82
2021/05/18 15:59:12;;;;;;;11.50;5.50;;;7.80;98.20;;;;;;4997952;28;20030;-81
2021/05/18 16:01:40;;;;;;;7.10;4.53;;;7.80;98.40;;;;;;4996636;28;20077;-83
2021/05/18 16:04:09;;;;;;;23.27;5.97;;;7.80;98.30;;;;;;5001738;28;20018;-83
2021/05/18 16:06:40;;;;;;;13.40;5.82;;;7.80;98.60;;;;;;5000455;28;20489;-81
2021/05/18 16:09:09;;;;;;;12.65;5.30;;;7.80;98.60;;;;;;4995075;28;20141;-81
2021/05/18 16:11:38;;;;;;;9.85;5.25;;;7.80;98.40;;;;;;4992856;28;20037;-82
2021/05/18 16:14:06;;;;;;;11.40;5.13;;;7.80;98.10;;;;;;5003826;28;20030;-81
2021/05/18 16:16:34;;;;;;;9.23;4.90;;;7.70;97.90;;;;;;4995469;28;20030;-84
2021/05/18 16:19:02;;;;;;;12.35;4.82;;;7.60;97.90;;;;;;5005926;28;20032;-83
2021/05/18 16:21:30;;;;;;;16.27;4.55;;;7.60;98.50;;;;;;4999719;28;20495;-83
2021/05/18 16:23:58;;;;;;;10.48;4.80;;;7.60;98.50;;;;;;5003714;28;20032;-83
2021/05/18 16:26:29;;;;;;;13.25;7.03;;;7.50;98.30;;;;;;5002380;28;20100;-84
2021/05/18 16:28:58;;;;;;;15.30;4.10;;;7.50;98.40;;;;;;5002091;28;20023;-82
2021/05/18 16:31:28;;;;;;;12.38;6.43;;;7.60;98.80;;;;;;4998446;28;20027;-83
2021/05/18 16:33:57;;;;;;;9.48;4.72;;;7.60;98.80;;;;;;5001993;28;20026;-82
2021/05/18 16:36:25;;;;;;;11.48;4.72;;;7.70;98.90;;;;;;5003751;28;20028;-84
2021/05/18 16:38:55;;;;;;;21.10;4.93;;;7.80;98.70;;;;;;5003014;28;20061;-85
2021/05/18 16:41:23;;;;;;;8.55;4.47;;;7.70;98.50;;;;;;5001297;28;20018;-83
2021/05/18 16:43:50;;;;;;;10.05;4.93;;;7.50;99.20;;;;;;5003054;28;20081;-84
2021/05/18 16:46:18;;;;;;;12.13;5.95;;;7.50;99.30;;;;;;4993480;28;20121;-83
2021/05/18 16:48:45;;;;;;;8.32;4.65;;;7.40;99.50;;;;;;5003032;28;20061;-84
2021/05/18 16:51:12;;;;;;;11.38;5.85;;;7.40;99.60;;;;;;5000817;28;20044;-84
2021/05/18 16:53:41;;;;;;;11.27;6.97;;;7.30;99.90;;;;;;4998633;28;20092;-85
2021/05/18 16:56:09;;;;;;;9.00;5.28;;;7.30;99.80;;;;;;5000675;28;20034;-79
2021/05/18 16:58:37;;;;;;;11.30;5.35;;;7.30;99.80;;;;;;5003792;28;20372;-81
2021/05/18 17:01:05;;;;;;;14.18;5.35;;;7.20;99.80;;;;;;5002733;28;20137;-79
2021/05/18 17:03:32;;;;;;;9.30;4.70;;;7.30;99.70;;;;;;5004239;28;20038;-78
2021/05/18 17:06:01;;;;;;;9.43;4.80;;;7.30;99.60;;;;;;4997283;28;20061;-78
2021/05/18 17:08:29;;;;;;;11.77;4.90;;;7.30;99.30;;;;;;4996442;28;20034;-81
2021/05/18 17:10:56;;;;;;;14.93;5.45;;;7.20;99.60;;;;;;4997522;28;20022;-79
2021/05/18 17:13:24;;;;;;;10.57;4.38;;;7.10;99.80;;;;;;5000564;28;20026;-80
2021/05/18 17:15:54;;;;;;;10.13;4.75;;;7.10;99.60;;;;;;5000112;28;20044;-79
2021/05/18 17:18:21;;;;;;;8.35;4.15;;;7.10;99.80;;;;;;5002582;28;20029;-81
2021/05/18 17:20:49;;;;;;;10.80;5.80;;;7.10;99.50;;;;;;4997653;28;20421;-80
2021/05/18 17:23:17;;;;;;;11.15;5.22;;;7.10;99.50;;;;;;5001172;28;20544;-79
2021/05/18 17:25:44;;;;;;;7.63;3.70;;;7.10;99.70;;;;;;5001827;28;20026;-80
2021/05/18 17:28:12;;;;;;;6.63;3.92;;;7.10;99.90;;;;;;5003583;28;20518;-79
2021/05/18 17:30:40;;;;;;;6.85;4.25;;;7.00;99.90;;;;;;4998474;28;20061;-79
2021/05/18 17:33:11;;;;;;;10.85;5.03;;;7.00;99.90;;;;;;4998340;28;20035;-79
2021/05/18 17:35:40;;;;;;;9.52;4.47;;;7.00;99.90;;;;;;4998822;28;20030;-78
2021/05/18 17:38:07;;;;;;;7.93;4.45;;;6.90;99.80;;;;;;5000951;28;20397;-81
2021/05/18 17:40:38;;;;;;;10.48;5.65;;;6.90;99.70;;;;;;4998171;28;20120;-79
2021/05/18 17:43:06;;;;;;;8.90;4.05;;;6.80;99.90;;;;;;5002760;28;20022;-79
2021/05/18 17:45:34;;;;;;;8.70;3.90;;;6.80;99.50;;;;;;4999010;28;20061;-79
2021/05/18 17:48:03;;;;;;;5.97;4.05;;;6.70;99.30;;;;;;4997431;28;20037;-79
2021/05/18 17:50:31;;;;;;;6.72;4.90;;;6.70;99.30;;;;;;4993260;28;20049;-80
2021/05/18 17:52:58;;;;;;;14.35;5.47;;;6.70;99.40;;;;;;4999843;28;20116;-78
2021/05/18 17:55:26;;;;;;;8.73;5.10;;;6.60;99.40;;;;;;4999708;28;20019;-79
2021/05/18 17:57:53;;;;;;;6.47;4.10;;;6.70;99.50;;;;;;4998691;28;20148;-79
2021/05/18 18:00:22;;;;;;;9.68;4.20;;;6.70;99.60;;;;;;4996979;28;20037;-78